createdAt,value
2022-08-08T00:00:56.315Z,70.40
2022-08-08T00:05:43.341Z,70.60
2022-08-08T00:11:12.852Z,70.90
2022-08-08T00:16:20.602Z,71.00
2022-08-08T00:21:27.616Z,71.10
2022-08-08T00:26:44.173Z,71.30
2022-08-08T00:32:29.172Z,71.70
2022-08-08T00:37:16.516Z,71.90
2022-08-08T00:42:52.346Z,71.80
2022-08-08T00:48:33.907Z,71.60
2022-08-08T00:54:15.757Z,71.50
2022-08-08T00:59:49.352Z,71.50
2022-08-08T01:05:42.507Z,71.80
2022-08-08T01:11:17.642Z,71.50
2022-08-08T01:16:52.788Z,71.60
2022-08-08T01:22:35.308Z,72.10
2022-08-08T01:28:07.741Z,72.30
2022-08-08T01:33:54.321Z,72.40
2022-08-08T01:39:18.453Z,72.50
2022-08-08T01:44:39.328Z,73.20
2022-08-08T01:49:53.607Z,73.30
2022-08-08T01:55:26.698Z,73.20
2022-08-08T02:00:42.663Z,73.40
2022-08-08T02:05:56.288Z,73.10
2022-08-08T02:11:23.632Z,73.00
2022-08-08T02:16:42.808Z,73.10
2022-08-08T02:22:13.217Z,73.30
2022-08-08T02:27:18.426Z,73.40
2022-08-08T02:32:32.742Z,73.40
2022-08-08T02:37:58.540Z,73.40
2022-08-08T02:44:35.273Z,73.80
2022-08-08T02:49:50.812Z,73.60
2022-08-08T02:55:59.959Z,73.80
2022-08-08T03:01:47.392Z,73.90
2022-08-08T03:07:41.464Z,74.00
2022-08-08T03:13:34.210Z,73.60
2022-08-08T03:19:02.386Z,73.60
2022-08-08T03:24:03.663Z,74.30
2022-08-08T03:29:16.996Z,74.10
2022-08-08T03:34:21.140Z,74.20
2022-08-08T03:39:22.011Z,74.40
2022-08-08T03:44:25.392Z,73.80
2022-08-08T03:49:56.731Z,74.10
2022-08-08T03:55:02.356Z,75.00
2022-08-08T04:00:11.605Z,74.90
2022-08-08T04:05:28.014Z,74.80
2022-08-08T04:10:32.559Z,75.00
2022-08-08T04:15:38.741Z,75.00
2022-08-08T04:20:39.083Z,75.30
2022-08-08T04:25:41.884Z,75.20
2022-08-08T04:30:44.768Z,75.70
2022-08-08T04:35:51.476Z,75.80
2022-08-08T04:40:54.683Z,75.90
2022-08-08T04:45:54.763Z,76.60
2022-08-08T04:50:54.858Z,77.20
2022-08-08T04:56:00.209Z,77.60
2022-08-08T05:01:08.779Z,78.90
2022-08-08T05:06:13.283Z,79.60
2022-08-08T05:11:22.732Z,81.10
2022-08-08T05:16:51.257Z,79.90
2022-08-08T05:21:59.506Z,80.20
2022-08-08T05:27:00.345Z,80.50
2022-08-08T05:32:03.924Z,80.30
2022-08-08T05:37:15.755Z,80.80
2022-08-08T05:42:19.175Z,81.00
2022-08-08T05:47:20.929Z,81.00
2022-08-08T05:52:31.730Z,81.40
2022-08-08T05:58:03.988Z,81.50
2022-08-08T06:03:55.546Z,81.10
2022-08-08T06:09:00.527Z,84.70
2022-08-08T06:14:17.716Z,82.60
2022-08-08T06:19:18.010Z,82.50
2022-08-08T06:24:22.964Z,81.80
2022-08-08T06:29:59.615Z,85.10
2022-08-08T06:36:04.474Z,85.20
2022-08-08T06:40:26.615Z,85.70
2022-08-08T06:45:29.293Z,82.40
2022-08-08T06:50:31.979Z,83.00
2022-08-08T06:55:37.689Z,83.00
2022-08-08T07:00:45.286Z,84.20
2022-08-08T07:06:02.116Z,82.10
2022-08-08T07:11:05.541Z,84.40
2022-08-08T07:16:19.242Z,81.00
2022-08-08T07:21:31.124Z,82.20
2022-08-08T07:26:35.996Z,81.50
2022-08-08T07:31:38.747Z,79.90
2022-08-08T07:36:48.307Z,79.60
2022-08-08T07:42:04.454Z,78.40
2022-08-08T07:47:06.070Z,80.20
2022-08-08T07:52:05.618Z,80.10
2022-08-08T07:57:11.581Z,77.00
2022-08-08T08:02:35.199Z,77.70
2022-08-08T08:07:40.310Z,76.10
2022-08-08T08:12:54.304Z,76.30
2022-08-08T08:17:59.393Z,76.30
2022-08-08T08:22:59.645Z,75.50
2022-08-08T08:27:58.405Z,74.60
2022-08-08T08:32:59.159Z,75.00
2022-08-08T08:38:17.305Z,74.10
2022-08-08T08:43:26.637Z,73.80
2022-08-08T08:48:31.232Z,74.00
2022-08-08T08:53:56.602Z,72.30
2022-08-08T09:05:54.396Z,72.30
2022-08-08T09:10:56.534Z,71.50
2022-08-08T09:16:02.835Z,69.80
2022-08-08T09:21:59.989Z,70.60
2022-08-08T09:27:55.701Z,68.00
2022-08-08T09:33:12.592Z,67.10
2022-08-08T09:38:17.556Z,68.20
2022-08-08T09:43:40.439Z,66.50
2022-08-08T09:48:42.949Z,66.50
2022-08-08T09:54:01.270Z,66.60
2022-08-08T09:59:40.270Z,65.10
2022-08-08T10:04:42.456Z,65.20
2022-08-08T10:10:00.222Z,63.60
2022-08-08T10:15:02.470Z,65.10
2022-08-08T10:20:16.985Z,64.00
2022-08-08T10:25:22.548Z,64.80
2022-08-08T10:30:57.464Z,64.80
2022-08-08T10:36:08.977Z,64.00
2022-08-08T10:41:05.009Z,63.40
2022-08-08T10:46:03.735Z,64.20
2022-08-08T10:51:15.113Z,62.50
2022-08-08T10:56:26.877Z,61.00
2022-08-08T11:01:30.160Z,62.30
2022-08-08T11:06:35.171Z,62.50
2022-08-08T11:12:05.161Z,60.80
2022-08-08T11:16:58.758Z,62.30
2022-08-08T11:21:58.851Z,60.60
2022-08-08T11:27:10.797Z,59.10
2022-08-08T11:32:22.174Z,58.30
2022-08-08T11:38:35.978Z,57.90
2022-08-08T11:42:48.101Z,57.70
2022-08-08T11:48:02.612Z,57.50
2022-08-08T11:53:05.747Z,56.50
2022-08-08T11:58:14.854Z,56.90
2022-08-08T12:03:21.037Z,57.00
2022-08-08T12:08:34.973Z,57.80
2022-08-08T12:13:38.287Z,57.90
2022-08-08T12:18:54.351Z,58.00
2022-08-08T12:24:04.073Z,57.20
2022-08-08T12:29:02.661Z,57.90
2022-08-08T12:34:02.319Z,57.50
2022-08-08T12:39:06.702Z,57.40
2022-08-08T12:44:10.099Z,56.90
2022-08-08T12:49:29.608Z,58.10
2022-08-08T12:54:29.657Z,57.90
2022-08-08T12:59:36.811Z,58.30
2022-08-08T13:04:51.645Z,58.30
2022-08-08T13:10:05.117Z,57.90
2022-08-08T13:15:06.166Z,58.50
2022-08-08T13:20:08.670Z,58.00
2022-08-08T13:25:15.005Z,58.00
2022-08-08T13:30:18.693Z,56.80
2022-08-08T13:35:25.164Z,56.30
2022-08-08T13:40:41.383Z,56.10
2022-08-08T13:45:40.918Z,55.60
2022-08-08T13:50:50.897Z,56.10
2022-08-08T13:56:01.138Z,56.20
2022-08-08T14:00:59.733Z,56.60
2022-08-08T14:06:32.047Z,56.00
2022-08-08T14:11:29.443Z,56.40
2022-08-08T14:16:27.806Z,56.40
2022-08-08T14:21:51.941Z,56.60
2022-08-08T14:26:56.270Z,56.10
2022-08-08T14:32:10.529Z,56.70
2022-08-08T14:37:17.966Z,56.00
2022-08-08T14:42:17.767Z,56.50
2022-08-08T14:47:22.065Z,56.50
2022-08-08T14:52:21.299Z,56.50
2022-08-08T14:58:02.597Z,56.40
2022-08-08T15:02:58.634Z,55.40
2022-08-08T15:07:59.878Z,56.60
2022-08-08T15:13:00.529Z,56.40
2022-08-08T15:17:58.812Z,56.60
2022-08-08T15:22:57.063Z,58.00
2022-08-08T15:28:05.117Z,56.90
2022-08-08T15:33:20.795Z,56.70
2022-08-08T15:38:20.377Z,57.20
2022-08-08T15:43:36.038Z,56.90
2022-08-08T15:48:37.609Z,56.50
2022-08-08T15:53:40.534Z,57.40
2022-08-08T15:58:49.348Z,57.30
2022-08-08T16:03:51.845Z,57.10
2022-08-08T16:13:00.319Z,56.80
2022-08-08T16:14:15.734Z,57.10
2022-08-08T16:19:23.387Z,57.00
2022-08-08T16:24:22.965Z,57.30
2022-08-08T16:29:23.845Z,57.60
2022-08-08T16:34:37.407Z,57.90
2022-08-08T16:40:03.034Z,57.50
2022-08-08T16:44:58.922Z,58.00
2022-08-08T16:50:01.233Z,58.30
2022-08-08T16:55:34.223Z,58.00
2022-08-08T17:00:26.967Z,58.50
2022-08-08T17:05:42.262Z,59.20
2022-08-08T17:10:58.245Z,59.40
2022-08-08T17:16:02.057Z,60.10
2022-08-08T17:21:02.180Z,61.20
2022-08-08T17:26:05.155Z,60.80
2022-08-08T17:31:39.300Z,61.20
2022-08-08T17:36:31.370Z,61.50
2022-08-08T17:41:38.539Z,61.60
2022-08-08T17:46:41.349Z,61.80
2022-08-08T17:51:43.708Z,62.00
2022-08-08T17:56:50.365Z,62.30
2022-08-08T18:01:54.400Z,62.90
2022-08-08T18:06:55.790Z,62.80
2022-08-08T18:11:56.218Z,63.90
2022-08-08T18:16:55.886Z,63.90
2022-08-08T18:22:00.953Z,63.90
2022-08-08T18:27:06.236Z,64.50
2022-08-08T18:32:16.037Z,65.10
2022-08-08T18:37:33.798Z,65.30
2022-08-08T18:42:33.199Z,65.50
2022-08-08T18:47:33.735Z,65.80
2022-08-08T18:52:34.764Z,65.70
2022-08-08T18:57:36.984Z,65.70
2022-08-08T19:02:48.593Z,66.00
2022-08-08T19:07:54.717Z,66.40
2022-08-08T19:12:53.500Z,66.40
2022-08-08T19:18:32.183Z,66.30
2022-08-08T19:23:11.884Z,66.60
2022-08-08T19:28:18.086Z,66.70
2022-08-08T19:33:18.522Z,66.90
2022-08-08T19:38:24.000Z,67.50
2022-08-08T19:43:22.215Z,67.50
2022-08-08T19:48:28.204Z,67.80
2022-08-08T19:53:51.421Z,68.30
2022-08-08T19:58:51.769Z,68.00
2022-08-08T20:04:01.337Z,67.90
2022-08-08T20:09:04.413Z,67.80
2022-08-08T20:14:33.085Z,67.70
2022-08-08T20:19:25.076Z,67.80
2022-08-08T20:24:24.670Z,68.10
2022-08-08T20:29:45.737Z,68.40
2022-08-08T20:34:47.874Z,68.30
2022-08-08T20:39:51.741Z,69.00
2022-08-08T20:44:50.568Z,69.00
2022-08-08T20:49:49.116Z,69.50
2022-08-08T20:54:50.488Z,69.60
2022-08-08T20:59:48.850Z,69.40
2022-08-08T21:04:50.028Z,70.10
2022-08-08T21:10:08.093Z,69.80
2022-08-08T21:15:09.841Z,69.50
2022-08-08T21:20:09.016Z,69.80
2022-08-08T21:25:10.782Z,70.10
2022-08-08T21:30:18.641Z,70.20
2022-08-08T21:36:14.974Z,70.30
2022-08-08T21:40:37.935Z,70.10
2022-08-08T21:48:00.625Z,70.00
2022-08-08T21:50:54.304Z,70.60
2022-08-08T21:56:19.749Z,70.70
2022-08-08T22:01:27.786Z,71.00
2022-08-08T22:06:30.973Z,71.80
2022-08-08T22:12:02.492Z,71.80
2022-08-08T22:16:53.382Z,71.40
2022-08-08T22:21:51.869Z,71.80
2022-08-08T22:27:01.631Z,71.70
2022-08-08T22:32:02.048Z,71.90
2022-08-08T22:37:01.117Z,72.30
2022-08-08T22:42:00.761Z,72.50
2022-08-08T22:47:01.215Z,73.30
2022-08-08T22:59:12.961Z,72.50
2022-08-08T23:04:17.367Z,74.10
2022-08-08T23:09:31.074Z,74.90
2022-08-08T23:14:38.784Z,74.80
2022-08-08T23:19:54.589Z,75.20
2022-08-08T23:24:52.880Z,75.30
2022-08-08T23:29:55.126Z,75.90
2022-08-08T23:34:58.710Z,75.90
2022-08-08T23:39:57.989Z,75.70
2022-08-08T23:44:57.750Z,76.60
2022-08-08T23:50:02.937Z,76.30
2022-08-08T23:55:22.898Z,76.30
